createdAt,value
2023-01-06T00:01:21.244Z,100443.59
2023-01-06T00:06:27.514Z,100449.28
2023-01-06T00:11:29.827Z,100450.78
2023-01-06T00:16:31.420Z,100464.28
2023-01-06T00:21:33.170Z,100455.88
2023-01-06T00:26:34.845Z,100466.00
2023-01-06T00:31:37.915Z,100462.91
2023-01-06T00:36:39.522Z,100458.78
2023-01-06T00:42:00.229Z,100459.53
2023-01-06T00:47:03.169Z,100463.69
2023-01-06T00:52:05.133Z,100457.59
2023-01-06T00:57:07.913Z,100471.81
2023-01-06T01:02:09.711Z,100477.50
2023-01-06T01:07:11.310Z,100471.69
2023-01-06T01:12:14.706Z,100475.19
2023-01-06T01:17:27.832Z,100471.94
2023-01-06T01:22:31.356Z,100487.13
2023-01-06T01:27:32.997Z,100471.03
2023-01-06T01:32:34.612Z,100477.81
2023-01-06T01:37:36.234Z,100483.50
2023-01-06T01:42:37.904Z,100494.31
2023-01-06T01:47:52.054Z,100504.94
2023-01-06T01:53:01.177Z,100510.53
2023-01-06T01:58:06.435Z,100513.56
2023-01-06T02:03:09.174Z,100517.53
2023-01-06T02:08:38.386Z,100510.28
2023-01-06T02:13:42.434Z,100517.31
2023-01-06T02:19:02.366Z,100518.44
2023-01-06T02:24:31.851Z,100512.84
2023-01-06T02:29:38.846Z,100520.81
2023-01-06T02:35:02.983Z,100524.81
2023-01-06T02:40:33.844Z,100521.66
2023-01-06T02:45:53.306Z,100508.41
2023-01-06T02:51:30.036Z,100510.75
2023-01-06T02:56:36.906Z,100509.59
2023-01-06T03:01:44.081Z,100516.78
2023-01-06T03:06:50.702Z,100525.84
2023-01-06T03:11:52.847Z,100523.00
2023-01-06T03:16:55.304Z,100524.19
2023-01-06T03:21:59.274Z,100530.56
2023-01-06T03:27:02.981Z,100529.56
2023-01-06T03:32:12.065Z,100528.63
2023-01-06T03:37:26.768Z,100535.94
2023-01-06T03:42:54.558Z,100536.13
2023-01-06T03:48:08.236Z,100543.38
2023-01-06T03:53:22.676Z,100548.22
2023-01-06T03:58:29.521Z,100546.44
2023-01-06T04:03:31.952Z,100551.34
2023-01-06T04:08:34.091Z,100549.38
2023-01-06T04:13:37.293Z,100548.03
2023-01-06T04:18:39.056Z,100549.97
2023-01-06T04:23:41.310Z,100545.75
2023-01-06T04:28:43.082Z,100546.31
2023-01-06T04:33:45.174Z,100545.91
2023-01-06T04:38:47.695Z,100543.19
2023-01-06T04:43:49.826Z,100547.91
2023-01-06T04:48:51.492Z,100547.72
2023-01-06T04:53:53.280Z,100541.88
2023-01-06T04:58:58.300Z,100552.47
2023-01-06T05:04:00.304Z,100559.66
2023-01-06T05:09:02.464Z,100555.91
2023-01-06T05:14:04.214Z,100563.28
2023-01-06T05:19:05.867Z,100559.31
2023-01-06T05:24:09.998Z,100549.41
2023-01-06T05:29:17.711Z,100557.66
2023-01-06T05:34:19.350Z,100557.41
2023-01-06T05:39:20.961Z,100555.56
2023-01-06T05:44:22.548Z,100558.97
2023-01-06T05:49:24.177Z,100566.50
2023-01-06T05:54:26.066Z,100571.66
2023-01-06T05:59:27.737Z,100573.28
2023-01-06T06:04:29.395Z,100580.09
2023-01-06T06:09:31.045Z,100592.34
2023-01-06T06:14:32.851Z,100596.00
2023-01-06T06:19:34.490Z,100602.72
2023-01-06T06:24:36.116Z,100599.69
2023-01-06T06:29:37.927Z,100598.97
2023-01-06T06:34:39.595Z,100603.25
2023-01-06T06:39:41.239Z,100601.88
2023-01-06T06:44:43.116Z,100603.56
2023-01-06T06:49:44.857Z,100612.81
2023-01-06T06:54:46.459Z,100610.38
2023-01-06T06:59:48.508Z,100620.50
2023-01-06T07:04:50.459Z,100626.47
2023-01-06T07:09:52.060Z,100631.72
2023-01-06T07:14:53.689Z,100642.25
2023-01-06T07:19:55.488Z,100641.69
2023-01-06T07:24:57.075Z,100631.31
2023-01-06T07:29:58.677Z,100643.66
2023-01-06T07:35:00.325Z,100627.50
2023-01-06T07:40:02.007Z,100631.28
2023-01-06T07:45:10.126Z,100640.16
2023-01-06T07:50:11.842Z,100637.22
2023-01-06T07:55:13.572Z,100641.00
2023-01-06T08:00:15.565Z,100639.22
2023-01-06T08:05:17.178Z,100638.13
2023-01-06T08:10:18.791Z,100642.25
2023-01-06T08:15:20.650Z,100643.63
2023-01-06T08:20:22.958Z,100641.50
2023-01-06T08:25:24.618Z,100641.09
2023-01-06T08:30:26.703Z,100645.63
2023-01-06T08:35:28.922Z,100636.84
2023-01-06T08:40:30.701Z,100643.09
2023-01-06T08:45:32.348Z,100641.53
2023-01-06T08:50:33.995Z,100639.25
2023-01-06T08:55:38.989Z,100647.13
2023-01-06T09:00:43.271Z,100646.53
2023-01-06T09:05:52.461Z,100642.59
2023-01-06T09:10:53.972Z,100647.13
2023-01-06T09:15:55.588Z,100649.31
2023-01-06T09:20:57.368Z,100643.00
2023-01-06T09:25:59.472Z,100641.66
2023-01-06T09:31:01.504Z,100636.91
2023-01-06T09:36:03.626Z,100637.13
2023-01-06T09:41:21.055Z,100624.84
2023-01-06T09:46:28.926Z,100616.72
2023-01-06T09:51:32.707Z,100613.41
2023-01-06T09:56:34.374Z,100607.66
2023-01-06T10:01:45.260Z,100596.06
2023-01-06T10:07:21.091Z,100590.34
2023-01-06T10:12:25.297Z,100588.41
2023-01-06T10:17:48.754Z,100587.91
2023-01-06T10:22:53.421Z,100579.94
2023-01-06T10:28:33.998Z,100576.22
2023-01-06T10:33:41.367Z,100575.84
2023-01-06T10:38:46.985Z,100561.13
2023-01-06T10:43:48.687Z,100544.72
2023-01-06T10:48:52.121Z,100543.41
2023-01-06T10:53:57.842Z,100531.31
2023-01-06T10:59:10.675Z,100535.03
2023-01-06T11:04:13.524Z,100520.44
2023-01-06T11:09:33.937Z,100514.03
2023-01-06T11:14:36.393Z,100507.56
2023-01-06T11:19:40.404Z,100496.00
2023-01-06T11:24:53.615Z,100497.09
2023-01-06T11:29:55.520Z,100493.19
2023-01-06T11:35:05.595Z,100481.59
2023-01-06T11:40:37.000Z,100468.38
2023-01-06T11:45:42.213Z,100453.38
2023-01-06T11:50:58.378Z,100451.72
2023-01-06T11:56:02.592Z,100438.31
2023-01-06T12:01:29.179Z,100441.63
2023-01-06T12:06:37.100Z,100433.25
2023-01-06T12:11:53.413Z,100424.03
2023-01-06T12:17:11.222Z,100404.72
2023-01-06T12:22:45.320Z,100406.34
2023-01-06T12:28:11.812Z,100416.47
2023-01-06T12:33:24.309Z,100424.13
2023-01-06T12:38:25.863Z,100429.22
2023-01-06T12:43:31.379Z,100430.94
2023-01-06T12:48:45.563Z,100427.72
2023-01-06T12:53:58.008Z,100426.13
2023-01-06T12:59:08.707Z,100420.25
2023-01-06T13:04:28.868Z,100398.28
2023-01-06T13:09:45.348Z,100399.00
2023-01-06T13:15:13.069Z,100396.44
2023-01-06T13:20:23.902Z,100388.06
2023-01-06T13:25:44.911Z,100375.44
2023-01-06T13:31:09.305Z,100376.28
2023-01-06T13:37:08.165Z,100372.94
2023-01-06T13:42:16.755Z,100377.09
2023-01-06T13:47:23.130Z,100372.88
2023-01-06T13:52:30.651Z,100372.78
2023-01-06T13:57:35.733Z,100362.69
2023-01-06T14:02:40.503Z,100352.63
2023-01-06T14:07:50.337Z,100352.63
2023-01-06T14:12:52.597Z,100345.16
2023-01-06T14:17:54.330Z,100347.63
2023-01-06T14:23:05.894Z,100346.72
2023-01-06T14:28:23.840Z,100349.97
2023-01-06T14:33:39.573Z,100341.34
2023-01-06T14:38:46.520Z,100350.56
2023-01-06T14:43:58.278Z,100359.50
2023-01-06T14:49:02.972Z,100365.22
2023-01-06T14:54:35.836Z,100370.06
2023-01-06T14:59:37.485Z,100363.19
2023-01-06T15:04:39.799Z,100359.72
2023-01-06T15:09:41.726Z,100362.84
2023-01-06T15:14:43.545Z,100351.84
2023-01-06T15:19:47.656Z,100355.09
2023-01-06T15:24:49.825Z,100341.47
2023-01-06T15:29:56.973Z,100328.69
2023-01-06T15:34:59.595Z,100331.06
2023-01-06T15:40:02.021Z,100324.09
2023-01-06T15:45:07.000Z,100319.75
2023-01-06T15:50:18.628Z,100311.94
2023-01-06T15:55:25.754Z,100314.22
2023-01-06T16:00:32.222Z,100321.56
2023-01-06T16:05:41.182Z,100317.09
2023-01-06T16:10:44.886Z,100312.63
2023-01-06T16:15:49.491Z,100323.28
2023-01-06T16:20:51.196Z,100331.34
2023-01-06T16:26:03.262Z,100334.31
2023-01-06T16:31:09.296Z,100338.34
2023-01-06T16:36:17.958Z,100350.75
2023-01-06T16:41:19.966Z,100354.81
2023-01-06T16:46:27.829Z,100353.88
2023-01-06T16:51:29.531Z,100363.03
2023-01-06T16:56:31.293Z,100371.34
2023-01-06T17:01:35.487Z,100373.09
2023-01-06T17:06:38.780Z,100395.72
2023-01-06T17:11:40.434Z,100400.53
2023-01-06T17:16:43.008Z,100407.31
2023-01-06T17:21:44.706Z,100409.72
2023-01-06T17:26:59.960Z,100408.00
2023-01-06T17:32:03.326Z,100419.81
2023-01-06T17:37:14.947Z,100419.78
2023-01-06T17:42:16.693Z,100430.72
2023-01-06T17:47:18.239Z,100435.69
2023-01-06T17:52:23.024Z,100440.69
2023-01-06T17:57:26.199Z,100439.72
2023-01-06T18:02:44.407Z,100439.47
2023-01-06T18:07:46.121Z,100440.06
2023-01-06T18:12:48.340Z,100447.69
2023-01-06T18:17:49.947Z,100447.66
2023-01-06T18:22:51.623Z,100445.97
2023-01-06T18:27:53.364Z,100444.31
2023-01-06T18:32:55.114Z,100447.69
2023-01-06T18:38:02.896Z,100462.03
2023-01-06T18:43:23.120Z,100453.63
2023-01-06T18:48:27.606Z,100454.53
2023-01-06T18:53:40.152Z,100441.91
2023-01-06T18:58:46.049Z,100436.09
2023-01-06T19:04:37.748Z,100433.78
2023-01-06T19:09:44.949Z,100448.31
2023-01-06T19:14:51.017Z,100455.19
2023-01-06T19:19:53.481Z,100454.34
2023-01-06T19:25:15.318Z,100450.94
2023-01-06T19:30:17.099Z,100457.72
2023-01-06T19:35:25.827Z,100455.22
2023-01-06T19:40:30.678Z,100455.19
2023-01-06T19:45:34.962Z,100455.81
2023-01-06T19:50:36.688Z,100466.63
2023-01-06T19:55:38.912Z,100453.78
2023-01-06T20:00:49.120Z,100454.50
2023-01-06T20:05:50.826Z,100462.63
2023-01-06T20:10:52.769Z,100460.03
2023-01-06T20:15:54.606Z,100472.53
2023-01-06T20:20:56.408Z,100471.63
2023-01-06T20:25:58.468Z,100477.28
2023-01-06T20:31:00.104Z,100477.09
2023-01-06T20:36:01.759Z,100481.06
2023-01-06T20:41:03.565Z,100478.25
2023-01-06T20:46:05.704Z,100477.88
2023-01-06T20:51:07.703Z,100484.19
2023-01-06T20:56:09.305Z,100485.50
2023-01-06T21:01:10.988Z,100489.34
2023-01-06T21:06:12.757Z,100495.00
2023-01-06T21:11:14.356Z,100482.44
2023-01-06T21:16:15.978Z,100490.66
2023-01-06T21:21:17.818Z,100494.78
2023-01-06T21:26:19.426Z,100493.88
2023-01-06T21:31:21.685Z,100492.94
2023-01-06T21:36:23.344Z,100495.28
2023-01-06T21:41:43.355Z,100496.69
2023-01-06T21:46:45.029Z,100493.00
2023-01-06T21:51:48.695Z,100495.44
2023-01-06T21:56:50.594Z,100495.75
2023-01-06T22:01:52.545Z,100507.72
2023-01-06T22:06:56.720Z,100508.13
2023-01-06T22:12:00.253Z,100508.78
2023-01-06T22:17:02.428Z,100504.34
2023-01-06T22:22:04.886Z,100515.94
2023-01-06T22:27:06.697Z,100519.88
2023-01-06T22:32:08.324Z,100494.44
2023-01-06T22:37:09.964Z,100493.47
2023-01-06T22:42:11.980Z,100499.03
2023-01-06T22:47:13.633Z,100503.09
2023-01-06T22:52:16.322Z,100503.81
2023-01-06T22:57:18.200Z,100511.16
2023-01-06T23:02:19.961Z,100518.41
2023-01-06T23:07:22.081Z,100512.09
2023-01-06T23:12:23.765Z,100515.16
2023-01-06T23:17:25.408Z,100506.56
2023-01-06T23:22:27.149Z,100490.44
2023-01-06T23:27:31.157Z,100496.16
2023-01-06T23:32:33.102Z,100495.28
2023-01-06T23:37:34.985Z,100501.22
2023-01-06T23:42:40.854Z,100512.81
2023-01-06T23:47:49.367Z,100518.47
2023-01-06T23:52:51.673Z,100520.09
2023-01-06T23:57:54.172Z,100518.38
